sensor_id;sensor_type;location;lat;lon;timestamp;P1;durP1;ratioP1;P2;durP2;ratioP2
32523;SDS011;18965;52.242;20.886;2022-12-18T00:01:31;223.00;;;117.97;;
32523;SDS011;18965;52.242;20.886;2022-12-18T00:03:59;223.13;;;130.03;;
32523;SDS011;18965;52.242;20.886;2022-12-18T00:06:27;219.00;;;127.15;;
32523;SDS011;18965;52.242;20.886;2022-12-18T00:08:54;217.43;;;107.27;;
32523;SDS011;18965;52.242;20.886;2022-12-18T00:11:22;233.00;;;132.65;;
32523;SDS011;18965;52.242;20.886;2022-12-18T00:13:50;199.75;;;93.95;;
32523;SDS011;18965;52.242;20.886;2022-12-18T00:16:20;239.20;;;143.43;;
32523;SDS011;18965;52.242;20.886;2022-12-18T00:18:48;216.65;;;131.00;;
32523;SDS011;18965;52.242;20.886;2022-12-18T00:21:14;224.60;;;144.50;;
32523;SDS011;18965;52.242;20.886;2022-12-18T00:23:41;202.95;;;102.68;;
32523;SDS011;18965;52.242;20.886;2022-12-18T00:26:13;215.18;;;125.10;;
32523;SDS011;18965;52.242;20.886;2022-12-18T00:28:40;201.85;;;107.70;;
32523;SDS011;18965;52.242;20.886;2022-12-18T00:31:08;198.65;;;93.90;;
32523;SDS011;18965;52.242;20.886;2022-12-18T00:33:36;192.55;;;91.60;;
32523;SDS011;18965;52.242;20.886;2022-12-18T00:36:22;208.07;;;111.85;;
32523;SDS011;18965;52.242;20.886;2022-12-18T00:38:49;206.55;;;104.68;;
32523;SDS011;18965;52.242;20.886;2022-12-18T00:41:16;247.05;;;172.15;;
32523;SDS011;18965;52.242;20.886;2022-12-18T00:44:02;207.50;;;95.80;;
32523;SDS011;18965;52.242;20.886;2022-12-18T00:46:28;223.82;;;117.72;;
32523;SDS011;18965;52.242;20.886;2022-12-18T00:48:55;204.75;;;102.60;;
32523;SDS011;18965;52.242;20.886;2022-12-18T00:51:21;202.63;;;80.50;;
32523;SDS011;18965;52.242;20.886;2022-12-18T00:53:47;203.52;;;111.78;;
32523;SDS011;18965;52.242;20.886;2022-12-18T00:56:13;206.98;;;86.28;;
32523;SDS011;18965;52.242;20.886;2022-12-18T00:58:39;212.50;;;104.28;;
32523;SDS011;18965;52.242;20.886;2022-12-18T01:01:05;225.90;;;107.72;;
32523;SDS011;18965;52.242;20.886;2022-12-18T01:03:31;211.95;;;103.85;;
32523;SDS011;18965;52.242;20.886;2022-12-18T01:05:57;219.27;;;108.50;;
32523;SDS011;18965;52.242;20.886;2022-12-18T01:08:23;229.05;;;129.23;;
32523;SDS011;18965;52.242;20.886;2022-12-18T01:10:50;203.95;;;97.55;;
32523;SDS011;18965;52.242;20.886;2022-12-18T01:13:16;215.30;;;115.93;;
32523;SDS011;18965;52.242;20.886;2022-12-18T01:15:51;219.85;;;115.32;;
32523;SDS011;18965;52.242;20.886;2022-12-18T01:18:17;209.38;;;100.70;;
32523;SDS011;18965;52.242;20.886;2022-12-18T01:20:43;200.10;;;78.37;;
32523;SDS011;18965;52.242;20.886;2022-12-18T01:23:09;198.10;;;93.88;;
32523;SDS011;18965;52.242;20.886;2022-12-18T01:25:35;205.88;;;99.40;;
32523;SDS011;18965;52.242;20.886;2022-12-18T01:28:02;211.98;;;97.63;;
32523;SDS011;18965;52.242;20.886;2022-12-18T01:30:28;210.55;;;110.80;;
32523;SDS011;18965;52.242;20.886;2022-12-18T01:32:54;216.32;;;95.88;;
32523;SDS011;18965;52.242;20.886;2022-12-18T01:35:20;213.73;;;101.95;;
32523;SDS011;18965;52.242;20.886;2022-12-18T01:37:46;204.93;;;102.28;;
32523;SDS011;18965;52.242;20.886;2022-12-18T01:40:12;216.20;;;104.63;;
32523;SDS011;18965;52.242;20.886;2022-12-18T01:42:38;203.00;;;91.65;;
32523;SDS011;18965;52.242;20.886;2022-12-18T01:50:07;226.60;;;106.15;;
32523;SDS011;18965;52.242;20.886;2022-12-18T01:52:38;201.23;;;98.07;;
32523;SDS011;18965;52.242;20.886;2022-12-18T01:55:08;208.05;;;102.45;;
32523;SDS011;18965;52.242;20.886;2022-12-18T01:57:34;225.75;;;134.35;;
32523;SDS011;18965;52.242;20.886;2022-12-18T02:00:04;231.80;;;110.22;;
32523;SDS011;18965;52.242;20.886;2022-12-18T02:02:33;233.65;;;148.43;;
32523;SDS011;18965;52.242;20.886;2022-12-18T02:04:59;193.27;;;75.90;;
32523;SDS011;18965;52.242;20.886;2022-12-18T02:12:24;185.43;;;72.77;;
32523;SDS011;18965;52.242;20.886;2022-12-18T02:22:37;192.83;;;73.67;;
32523;SDS011;18965;52.242;20.886;2022-12-18T02:27:39;187.65;;;72.07;;
32523;SDS011;18965;52.242;20.886;2022-12-18T02:30:09;225.30;;;94.60;;
32523;SDS011;18965;52.242;20.886;2022-12-18T02:32:43;219.40;;;121.97;;
32523;SDS011;18965;52.242;20.886;2022-12-18T02:35:15;197.02;;;95.43;;
32523;SDS011;18965;52.242;20.886;2022-12-18T02:37:45;202.32;;;94.20;;
32523;SDS011;18965;52.242;20.886;2022-12-18T02:40:12;206.82;;;108.65;;
32523;SDS011;18965;52.242;20.886;2022-12-18T02:42:40;231.38;;;122.93;;
32523;SDS011;18965;52.242;20.886;2022-12-18T02:45:06;227.35;;;117.07;;
32523;SDS011;18965;52.242;20.886;2022-12-18T02:47:34;213.68;;;108.85;;
32523;SDS011;18965;52.242;20.886;2022-12-18T02:50:22;209.98;;;110.60;;
32523;SDS011;18965;52.242;20.886;2022-12-18T02:53:30;201.85;;;90.68;;
32523;SDS011;18965;52.242;20.886;2022-12-18T02:55:52;225.80;;;135.57;;
32523;SDS011;18965;52.242;20.886;2022-12-18T03:01:23;128.27;;;54.93;;
32523;SDS011;18965;52.242;20.886;2022-12-18T03:04:01;190.73;;;74.37;;
32523;SDS011;18965;52.242;20.886;2022-12-18T03:06:43;199.88;;;74.45;;
32523;SDS011;18965;52.242;20.886;2022-12-18T03:09:14;225.73;;;109.65;;
32523;SDS011;18965;52.242;20.886;2022-12-18T03:11:48;199.20;;;83.47;;
32523;SDS011;18965;52.242;20.886;2022-12-18T03:14:38;184.70;;;74.73;;
32523;SDS011;18965;52.242;20.886;2022-12-18T03:17:07;181.57;;;72.82;;
32523;SDS011;18965;52.242;20.886;2022-12-18T03:19:38;185.00;;;72.75;;
32523;SDS011;18965;52.242;20.886;2022-12-18T03:22:05;189.23;;;73.20;;
32523;SDS011;18965;52.242;20.886;2022-12-18T03:24:33;187.27;;;72.20;;
32523;SDS011;18965;52.242;20.886;2022-12-18T03:27:02;189.23;;;74.45;;
32523;SDS011;18965;52.242;20.886;2022-12-18T03:29:34;196.82;;;75.63;;
32523;SDS011;18965;52.242;20.886;2022-12-18T03:35:06;198.93;;;83.03;;
32523;SDS011;18965;52.242;20.886;2022-12-18T03:37:34;198.63;;;76.00;;
32523;SDS011;18965;52.242;20.886;2022-12-18T03:40:00;196.05;;;76.95;;
32523;SDS011;18965;52.242;20.886;2022-12-18T03:48:22;187.93;;;74.68;;
32523;SDS011;18965;52.242;20.886;2022-12-18T03:50:59;182.60;;;71.63;;
32523;SDS011;18965;52.242;20.886;2022-12-18T03:53:55;187.27;;;74.28;;
32523;SDS011;18965;52.242;20.886;2022-12-18T03:56:24;184.73;;;73.13;;
32523;SDS011;18965;52.242;20.886;2022-12-18T03:58:53;184.80;;;72.57;;
32523;SDS011;18965;52.242;20.886;2022-12-18T04:01:20;177.80;;;71.37;;
32523;SDS011;18965;52.242;20.886;2022-12-18T04:03:51;184.87;;;73.83;;
32523;SDS011;18965;52.242;20.886;2022-12-18T04:06:18;184.25;;;74.22;;
32523;SDS011;18965;52.242;20.886;2022-12-18T04:08:44;197.00;;;76.20;;
32523;SDS011;18965;52.242;20.886;2022-12-18T04:11:11;195.13;;;76.97;;
32523;SDS011;18965;52.242;20.886;2022-12-18T04:13:38;190.82;;;74.95;;
32523;SDS011;18965;52.242;20.886;2022-12-18T04:16:04;196.30;;;77.90;;
32523;SDS011;18965;52.242;20.886;2022-12-18T04:18:30;203.47;;;77.83;;
32523;SDS011;18965;52.242;20.886;2022-12-18T04:20:56;199.37;;;77.03;;
32523;SDS011;18965;52.242;20.886;2022-12-18T04:23:22;195.53;;;76.80;;
32523;SDS011;18965;52.242;20.886;2022-12-18T04:25:48;191.73;;;76.20;;
32523;SDS011;18965;52.242;20.886;2022-12-18T04:28:14;189.53;;;74.00;;
32523;SDS011;18965;52.242;20.886;2022-12-18T04:30:40;186.57;;;75.00;;
32523;SDS011;18965;52.242;20.886;2022-12-18T04:33:10;190.57;;;74.90;;
32523;SDS011;18965;52.242;20.886;2022-12-18T04:35:38;184.23;;;72.67;;
32523;SDS011;18965;52.242;20.886;2022-12-18T04:38:05;193.37;;;75.63;;
32523;SDS011;18965;52.242;20.886;2022-12-18T04:40:33;191.43;;;76.00;;
32523;SDS011;18965;52.242;20.886;2022-12-18T04:42:59;185.90;;;74.27;;
32523;SDS011;18965;52.242;20.886;2022-12-18T04:45:25;195.03;;;75.87;;
32523;SDS011;18965;52.242;20.886;2022-12-18T04:47:52;185.43;;;73.87;;
32523;SDS011;18965;52.242;20.886;2022-12-18T04:50:18;185.97;;;74.43;;
32523;SDS011;18965;52.242;20.886;2022-12-18T04:52:44;190.73;;;74.27;;
32523;SDS011;18965;52.242;20.886;2022-12-18T04:55:10;187.60;;;73.87;;
32523;SDS011;18965;52.242;20.886;2022-12-18T04:57:36;188.63;;;74.53;;
32523;SDS011;18965;52.242;20.886;2022-12-18T05:00:02;205.77;;;78.07;;
32523;SDS011;18965;52.242;20.886;2022-12-18T05:02:28;187.27;;;73.53;;
32523;SDS011;18965;52.242;20.886;2022-12-18T05:04:54;178.00;;;71.47;;
32523;SDS011;18965;52.242;20.886;2022-12-18T05:07:21;184.57;;;74.10;;
32523;SDS011;18965;52.242;20.886;2022-12-18T05:09:47;180.37;;;75.40;;
32523;SDS011;18965;52.242;20.886;2022-12-18T05:12:13;184.27;;;75.27;;
32523;SDS011;18965;52.242;20.886;2022-12-18T05:14:39;173.67;;;72.53;;
32523;SDS011;18965;52.242;20.886;2022-12-18T05:17:05;175.33;;;72.70;;
32523;SDS011;18965;52.242;20.886;2022-12-18T05:19:31;179.43;;;74.30;;
32523;SDS011;18965;52.242;20.886;2022-12-18T05:21:57;193.90;;;76.90;;
32523;SDS011;18965;52.242;20.886;2022-12-18T05:24:23;174.53;;;72.47;;
32523;SDS011;18965;52.242;20.886;2022-12-18T05:26:49;186.10;;;76.00;;
32523;SDS011;18965;52.242;20.886;2022-12-18T05:29:15;178.90;;;72.67;;
32523;SDS011;18965;52.242;20.886;2022-12-18T05:31:42;182.13;;;77.20;;
32523;SDS011;18965;52.242;20.886;2022-12-18T05:34:08;195.43;;;78.90;;
32523;SDS011;18965;52.242;20.886;2022-12-18T05:36:34;210.40;;;82.47;;
32523;SDS011;18965;52.242;20.886;2022-12-18T05:39:00;191.33;;;75.80;;
32523;SDS011;18965;52.242;20.886;2022-12-18T05:41:27;190.63;;;75.83;;
32523;SDS011;18965;52.242;20.886;2022-12-18T05:43:53;190.80;;;78.17;;
32523;SDS011;18965;52.242;20.886;2022-12-18T05:46:19;192.50;;;77.20;;
32523;SDS011;18965;52.242;20.886;2022-12-18T05:48:46;185.70;;;76.37;;
32523;SDS011;18965;52.242;20.886;2022-12-18T05:51:14;186.47;;;75.37;;
32523;SDS011;18965;52.242;20.886;2022-12-18T05:53:41;139.87;;;59.87;;
32523;SDS011;18965;52.242;20.886;2022-12-18T05:56:09;186.80;;;72.57;;
32523;SDS011;18965;52.242;20.886;2022-12-18T05:58:37;183.32;;;74.65;;
32523;SDS011;18965;52.242;20.886;2022-12-18T06:01:23;189.50;;;75.20;;
32523;SDS011;18965;52.242;20.886;2022-12-18T06:03:51;182.47;;;73.90;;
32523;SDS011;18965;52.242;20.886;2022-12-18T06:06:18;185.07;;;74.77;;
32523;SDS011;18965;52.242;20.886;2022-12-18T06:08:46;135.35;;;56.45;;
32523;SDS011;18965;52.242;20.886;2022-12-18T06:11:12;187.40;;;74.70;;
32523;SDS011;18965;52.242;20.886;2022-12-18T06:13:41;189.90;;;76.05;;
32523;SDS011;18965;52.242;20.886;2022-12-18T06:16:07;193.17;;;76.17;;
32523;SDS011;18965;52.242;20.886;2022-12-18T06:18:33;190.17;;;75.63;;
32523;SDS011;18965;52.242;20.886;2022-12-18T06:21:00;185.03;;;74.27;;
32523;SDS011;18965;52.242;20.886;2022-12-18T06:23:26;188.63;;;75.40;;
32523;SDS011;18965;52.242;20.886;2022-12-18T06:25:53;188.27;;;73.17;;
32523;SDS011;18965;52.242;20.886;2022-12-18T06:28:19;194.85;;;75.55;;
32523;SDS011;18965;52.242;20.886;2022-12-18T06:30:45;199.45;;;87.25;;
32523;SDS011;18965;52.242;20.886;2022-12-18T06:33:12;195.02;;;90.13;;
32523;SDS011;18965;52.242;20.886;2022-12-18T06:35:38;210.40;;;98.07;;
32523;SDS011;18965;52.242;20.886;2022-12-18T06:38:04;211.82;;;78.95;;
32523;SDS011;18965;52.242;20.886;2022-12-18T06:40:30;201.48;;;76.68;;
32523;SDS011;18965;52.242;20.886;2022-12-18T06:42:56;211.73;;;92.20;;
32523;SDS011;18965;52.242;20.886;2022-12-18T06:45:22;211.60;;;89.35;;
32523;SDS011;18965;52.242;20.886;2022-12-18T06:47:49;193.60;;;74.47;;
32523;SDS011;18965;52.242;20.886;2022-12-18T06:50:15;209.88;;;78.90;;
32523;SDS011;18965;52.242;20.886;2022-12-18T06:52:41;205.02;;;77.95;;
32523;SDS011;18965;52.242;20.886;2022-12-18T06:55:08;200.73;;;76.30;;
32523;SDS011;18965;52.242;20.886;2022-12-18T06:57:35;245.75;;;82.78;;
32523;SDS011;18965;52.242;20.886;2022-12-18T07:00:01;260.30;;;84.20;;
32523;SDS011;18965;52.242;20.886;2022-12-18T07:02:27;214.55;;;79.28;;
32523;SDS011;18965;52.242;20.886;2022-12-18T07:04:53;210.43;;;77.97;;
32523;SDS011;18965;52.242;20.886;2022-12-18T07:07:20;219.55;;;78.60;;
32523;SDS011;18965;52.242;20.886;2022-12-18T07:09:46;207.15;;;78.22;;
32523;SDS011;18965;52.242;20.886;2022-12-18T07:12:12;215.95;;;78.72;;
32523;SDS011;18965;52.242;20.886;2022-12-18T07:14:38;230.50;;;80.85;;
32523;SDS011;18965;52.242;20.886;2022-12-18T07:17:04;233.68;;;81.65;;
32523;SDS011;18965;52.242;20.886;2022-12-18T07:19:30;217.93;;;79.40;;
32523;SDS011;18965;52.242;20.886;2022-12-18T07:21:56;208.30;;;77.35;;
32523;SDS011;18965;52.242;20.886;2022-12-18T07:24:22;222.75;;;80.05;;
32523;SDS011;18965;52.242;20.886;2022-12-18T07:26:49;255.60;;;86.28;;
32523;SDS011;18965;52.242;20.886;2022-12-18T07:29:15;244.18;;;83.38;;
32523;SDS011;18965;52.242;20.886;2022-12-18T07:31:41;215.38;;;78.40;;
32523;SDS011;18965;52.242;20.886;2022-12-18T07:34:13;221.52;;;80.68;;
32523;SDS011;18965;52.242;20.886;2022-12-18T07:36:40;215.30;;;78.07;;
32523;SDS011;18965;52.242;20.886;2022-12-18T07:39:06;231.73;;;81.07;;
32523;SDS011;18965;52.242;20.886;2022-12-18T07:41:32;234.07;;;79.95;;
32523;SDS011;18965;52.242;20.886;2022-12-18T07:43:58;224.65;;;79.25;;
32523;SDS011;18965;52.242;20.886;2022-12-18T07:46:25;220.07;;;77.63;;
32523;SDS011;18965;52.242;20.886;2022-12-18T07:48:51;226.05;;;79.63;;
32523;SDS011;18965;52.242;20.886;2022-12-18T07:51:17;212.10;;;77.97;;
32523;SDS011;18965;52.242;20.886;2022-12-18T07:53:43;221.40;;;79.10;;
32523;SDS011;18965;52.242;20.886;2022-12-18T07:56:10;224.75;;;78.68;;
32523;SDS011;18965;52.242;20.886;2022-12-18T07:58:37;219.40;;;78.78;;
32523;SDS011;18965;52.242;20.886;2022-12-18T08:03:29;222.65;;;78.20;;
32523;SDS011;18965;52.242;20.886;2022-12-18T08:05:59;232.55;;;82.65;;
32523;SDS011;18965;52.242;20.886;2022-12-18T08:08:25;201.77;;;75.20;;
32523;SDS011;18965;52.242;20.886;2022-12-18T08:10:51;203.45;;;76.10;;
32523;SDS011;18965;52.242;20.886;2022-12-18T08:13:18;206.40;;;75.35;;
32523;SDS011;18965;52.242;20.886;2022-12-18T08:15:44;215.63;;;76.65;;
32523;SDS011;18965;52.242;20.886;2022-12-18T08:18:10;247.23;;;100.07;;
32523;SDS011;18965;52.242;20.886;2022-12-18T08:20:36;218.38;;;78.30;;
32523;SDS011;18965;52.242;20.886;2022-12-18T08:23:02;213.38;;;78.07;;
32523;SDS011;18965;52.242;20.886;2022-12-18T08:25:28;235.93;;;80.28;;
32523;SDS011;18965;52.242;20.886;2022-12-18T08:27:54;227.68;;;86.18;;
32523;SDS011;18965;52.242;20.886;2022-12-18T08:30:21;225.90;;;80.40;;
32523;SDS011;18965;52.242;20.886;2022-12-18T08:32:50;229.68;;;79.65;;
32523;SDS011;18965;52.242;20.886;2022-12-18T08:35:17;226.02;;;81.82;;
32523;SDS011;18965;52.242;20.886;2022-12-18T08:37:44;220.18;;;79.40;;
32523;SDS011;18965;52.242;20.886;2022-12-18T08:40:10;247.60;;;83.43;;
32523;SDS011;18965;52.242;20.886;2022-12-18T08:42:36;271.08;;;87.00;;
32523;SDS011;18965;52.242;20.886;2022-12-18T08:45:20;222.80;;;78.00;;
32523;SDS011;18965;52.242;20.886;2022-12-18T08:47:46;225.18;;;80.03;;
32523;SDS011;18965;52.242;20.886;2022-12-18T08:50:12;235.63;;;81.38;;
32523;SDS011;18965;52.242;20.886;2022-12-18T08:52:39;257.48;;;83.65;;
32523;SDS011;18965;52.242;20.886;2022-12-18T08:55:06;240.52;;;81.40;;
32523;SDS011;18965;52.242;20.886;2022-12-18T08:57:32;239.60;;;81.30;;
32523;SDS011;18965;52.242;20.886;2022-12-18T08:59:58;237.23;;;80.10;;
32523;SDS011;18965;52.242;20.886;2022-12-18T09:02:24;241.63;;;84.07;;
32523;SDS011;18965;52.242;20.886;2022-12-18T09:04:50;240.45;;;80.18;;
32523;SDS011;18965;52.242;20.886;2022-12-18T09:07:16;251.25;;;83.18;;
32523;SDS011;18965;52.242;20.886;2022-12-18T09:09:43;256.52;;;83.65;;
32523;SDS011;18965;52.242;20.886;2022-12-18T09:12:09;289.85;;;90.90;;
32523;SDS011;18965;52.242;20.886;2022-12-18T09:14:35;251.00;;;83.28;;
32523;SDS011;18965;52.242;20.886;2022-12-18T09:17:01;227.10;;;82.20;;
32523;SDS011;18965;52.242;20.886;2022-12-18T09:19:27;231.57;;;80.50;;
32523;SDS011;18965;52.242;20.886;2022-12-18T09:21:53;278.15;;;89.00;;
32523;SDS011;18965;52.242;20.886;2022-12-18T09:24:20;300.33;;;168.15;;
32523;SDS011;18965;52.242;20.886;2022-12-18T09:26:46;265.23;;;92.38;;
32523;SDS011;18965;52.242;20.886;2022-12-18T09:29:12;267.13;;;107.93;;
32523;SDS011;18965;52.242;20.886;2022-12-18T09:31:38;335.50;;;165.10;;
32523;SDS011;18965;52.242;20.886;2022-12-18T09:34:04;347.77;;;282.98;;
32523;SDS011;18965;52.242;20.886;2022-12-18T09:36:31;269.98;;;86.55;;
32523;SDS011;18965;52.242;20.886;2022-12-18T09:38:56;241.80;;;84.97;;
32523;SDS011;18965;52.242;20.886;2022-12-18T09:44:29;265.25;;;121.22;;
32523;SDS011;18965;52.242;20.886;2022-12-18T09:47:17;256.05;;;99.60;;
32523;SDS011;18965;52.242;20.886;2022-12-18T09:49:59;262.88;;;101.30;;
32523;SDS011;18965;52.242;20.886;2022-12-18T09:55:10;262.20;;;106.82;;
32523;SDS011;18965;52.242;20.886;2022-12-18T09:57:47;281.13;;;165.70;;
32523;SDS011;18965;52.242;20.886;2022-12-18T10:00:19;285.17;;;155.48;;
32523;SDS011;18965;52.242;20.886;2022-12-18T10:02:47;255.85;;;113.32;;
32523;SDS011;18965;52.242;20.886;2022-12-18T10:05:14;266.85;;;125.72;;
32523;SDS011;18965;52.242;20.886;2022-12-18T10:10:57;268.08;;;110.82;;
32523;SDS011;18965;52.242;20.886;2022-12-18T10:13:52;248.48;;;98.40;;
32523;SDS011;18965;52.242;20.886;2022-12-18T10:16:16;248.68;;;101.05;;
32523;SDS011;18965;52.242;20.886;2022-12-18T10:26:51;251.50;;;102.00;;
32523;SDS011;18965;52.242;20.886;2022-12-18T10:29:21;259.25;;;114.18;;
32523;SDS011;18965;52.242;20.886;2022-12-18T10:31:47;281.00;;;99.97;;
32523;SDS011;18965;52.242;20.886;2022-12-18T10:34:13;281.23;;;123.75;;
32523;SDS011;18965;52.242;20.886;2022-12-18T10:36:39;263.75;;;115.68;;
32523;SDS011;18965;52.242;20.886;2022-12-18T10:39:23;276.77;;;119.20;;
32523;SDS011;18965;52.242;20.886;2022-12-18T10:41:51;304.52;;;125.43;;
32523;SDS011;18965;52.242;20.886;2022-12-18T10:44:18;269.67;;;91.00;;
32523;SDS011;18965;52.242;20.886;2022-12-18T10:46:49;275.67;;;100.75;;
32523;SDS011;18965;52.242;20.886;2022-12-18T10:49:19;287.60;;;117.32;;
32523;SDS011;18965;52.242;20.886;2022-12-18T10:51:51;281.88;;;96.95;;
32523;SDS011;18965;52.242;20.886;2022-12-18T10:54:39;265.50;;;91.55;;
32523;SDS011;18965;52.242;20.886;2022-12-18T10:57:28;270.05;;;93.95;;
32523;SDS011;18965;52.242;20.886;2022-12-18T10:59:55;291.48;;;124.45;;
32523;SDS011;18965;52.242;20.886;2022-12-18T11:02:56;273.23;;;104.65;;
32523;SDS011;18965;52.242;20.886;2022-12-18T11:05:31;275.05;;;108.85;;
32523;SDS011;18965;52.242;20.886;2022-12-18T11:07:59;282.73;;;119.07;;
32523;SDS011;18965;52.242;20.886;2022-12-18T11:10:36;296.23;;;147.05;;
32523;SDS011;18965;52.242;20.886;2022-12-18T11:13:21;285.65;;;103.30;;
32523;SDS011;18965;52.242;20.886;2022-12-18T11:15:50;294.08;;;129.48;;
32523;SDS011;18965;52.242;20.886;2022-12-18T11:18:17;278.35;;;112.32;;
32523;SDS011;18965;52.242;20.886;2022-12-18T11:20:57;279.38;;;109.60;;
32523;SDS011;18965;52.242;20.886;2022-12-18T11:23:26;299.45;;;118.38;;
32523;SDS011;18965;52.242;20.886;2022-12-18T11:25:53;280.27;;;112.90;;
32523;SDS011;18965;52.242;20.886;2022-12-18T11:28:28;277.10;;;106.25;;
32523;SDS011;18965;52.242;20.886;2022-12-18T11:31:17;282.50;;;118.32;;
32523;SDS011;18965;52.242;20.886;2022-12-18T11:36:52;287.65;;;111.82;;
32523;SDS011;18965;52.242;20.886;2022-12-18T11:44:53;279.55;;;109.75;;
32523;SDS011;18965;52.242;20.886;2022-12-18T11:50:00;286.02;;;107.63;;
32523;SDS011;18965;52.242;20.886;2022-12-18T11:52:36;291.50;;;115.53;;
32523;SDS011;18965;52.242;20.886;2022-12-18T11:55:07;277.50;;;112.00;;
32523;SDS011;18965;52.242;20.886;2022-12-18T12:00:26;311.13;;;143.27;;
32523;SDS011;18965;52.242;20.886;2022-12-18T12:17:01;259.40;;;103.18;;
32523;SDS011;18965;52.242;20.886;2022-12-18T12:22:48;286.65;;;115.07;;
32523;SDS011;18965;52.242;20.886;2022-12-18T12:41:25;263.00;;;112.38;;
32523;SDS011;18965;52.242;20.886;2022-12-18T12:44:19;259.48;;;106.70;;
32523;SDS011;18965;52.242;20.886;2022-12-18T12:47:00;315.85;;;198.38;;
32523;SDS011;18965;52.242;20.886;2022-12-18T12:49:41;284.63;;;150.43;;
32523;SDS011;18965;52.242;20.886;2022-12-18T12:52:14;301.35;;;177.82;;
32523;SDS011;18965;52.242;20.886;2022-12-18T12:54:44;273.48;;;128.38;;
32523;SDS011;18965;52.242;20.886;2022-12-18T12:57:24;267.27;;;126.35;;
32523;SDS011;18965;52.242;20.886;2022-12-18T13:00:17;303.35;;;167.60;;
32523;SDS011;18965;52.242;20.886;2022-12-18T13:05:45;284.40;;;143.95;;
32523;SDS011;18965;52.242;20.886;2022-12-18T13:08:23;324.30;;;189.15;;
32523;SDS011;18965;52.242;20.886;2022-12-18T13:10:53;347.35;;;236.05;;
32523;SDS011;18965;52.242;20.886;2022-12-18T13:13:53;340.77;;;209.80;;
32523;SDS011;18965;52.242;20.886;2022-12-18T13:16:21;333.25;;;206.32;;
32523;SDS011;18965;52.242;20.886;2022-12-18T13:18:51;343.50;;;241.15;;
32523;SDS011;18965;52.242;20.886;2022-12-18T13:23:50;317.75;;;215.95;;
32523;SDS011;18965;52.242;20.886;2022-12-18T13:31:12;260.98;;;107.25;;
32523;SDS011;18965;52.242;20.886;2022-12-18T13:33:43;248.95;;;89.65;;
32523;SDS011;18965;52.242;20.886;2022-12-18T13:36:14;293.95;;;187.60;;
32523;SDS011;18965;52.242;20.886;2022-12-18T13:38:40;298.77;;;188.82;;
32523;SDS011;18965;52.242;20.886;2022-12-18T13:43:35;303.55;;;222.98;;
32523;SDS011;18965;52.242;20.886;2022-12-18T13:51:17;237.38;;;98.50;;
32523;SDS011;18965;52.242;20.886;2022-12-18T13:53:48;253.70;;;107.15;;
32523;SDS011;18965;52.242;20.886;2022-12-18T13:56:30;255.35;;;133.02;;
32523;SDS011;18965;52.242;20.886;2022-12-18T13:59:04;236.57;;;98.32;;
32523;SDS011;18965;52.242;20.886;2022-12-18T14:01:55;249.73;;;114.95;;
32523;SDS011;18965;52.242;20.886;2022-12-18T14:04:27;251.82;;;110.35;;
32523;SDS011;18965;52.242;20.886;2022-12-18T14:09:34;247.27;;;109.95;;
32523;SDS011;18965;52.242;20.886;2022-12-18T14:12:01;246.30;;;109.63;;
32523;SDS011;18965;52.242;20.886;2022-12-18T14:14:47;247.88;;;94.85;;
32523;SDS011;18965;52.242;20.886;2022-12-18T14:17:15;252.65;;;104.40;;
32523;SDS011;18965;52.242;20.886;2022-12-18T14:19:43;356.33;;;285.25;;
32523;SDS011;18965;52.242;20.886;2022-12-18T14:22:13;317.25;;;213.60;;
32523;SDS011;18965;52.242;20.886;2022-12-18T14:24:42;223.77;;;86.65;;
32523;SDS011;18965;52.242;20.886;2022-12-18T14:27:21;237.50;;;98.63;;
32523;SDS011;18965;52.242;20.886;2022-12-18T14:29:49;273.67;;;143.68;;
32523;SDS011;18965;52.242;20.886;2022-12-18T14:32:19;229.35;;;97.05;;
32523;SDS011;18965;52.242;20.886;2022-12-18T14:34:49;305.52;;;113.95;;
32523;SDS011;18965;52.242;20.886;2022-12-18T14:37:17;241.02;;;101.10;;
32523;SDS011;18965;52.242;20.886;2022-12-18T14:40:00;255.52;;;106.38;;
32523;SDS011;18965;52.242;20.886;2022-12-18T14:42:29;242.90;;;102.13;;
32523;SDS011;18965;52.242;20.886;2022-12-18T14:47:59;228.52;;;95.90;;
32523;SDS011;18965;52.242;20.886;2022-12-18T14:50:25;252.65;;;135.48;;
32523;SDS011;18965;52.242;20.886;2022-12-18T14:52:51;263.92;;;116.72;;
32523;SDS011;18965;52.242;20.886;2022-12-18T14:55:18;239.48;;;100.63;;
32523;SDS011;18965;52.242;20.886;2022-12-18T14:57:45;233.45;;;101.00;;
32523;SDS011;18965;52.242;20.886;2022-12-18T15:00:16;254.82;;;110.07;;
32523;SDS011;18965;52.242;20.886;2022-12-18T15:02:47;231.60;;;97.50;;
32523;SDS011;18965;52.242;20.886;2022-12-18T15:05:18;233.15;;;105.93;;
32523;SDS011;18965;52.242;20.886;2022-12-18T15:07:50;237.00;;;107.47;;
32523;SDS011;18965;52.242;20.886;2022-12-18T15:10:21;236.20;;;103.07;;
32523;SDS011;18965;52.242;20.886;2022-12-18T15:12:49;280.75;;;115.75;;
32523;SDS011;18965;52.242;20.886;2022-12-18T15:20:44;231.55;;;88.97;;
32523;SDS011;18965;52.242;20.886;2022-12-18T15:23:23;247.98;;;113.47;;
32523;SDS011;18965;52.242;20.886;2022-12-18T15:33:35;257.92;;;116.97;;
32523;SDS011;18965;52.242;20.886;2022-12-18T15:36:08;293.08;;;151.43;;
32523;SDS011;18965;52.242;20.886;2022-12-18T15:38:36;268.15;;;115.40;;
32523;SDS011;18965;52.242;20.886;2022-12-18T15:41:02;269.45;;;115.43;;
32523;SDS011;18965;52.242;20.886;2022-12-18T15:43:28;264.80;;;114.75;;
32523;SDS011;18965;52.242;20.886;2022-12-18T15:48:27;292.25;;;118.10;;
32523;SDS011;18965;52.242;20.886;2022-12-18T15:50:54;255.70;;;90.15;;
32523;SDS011;18965;52.242;20.886;2022-12-18T15:53:22;273.45;;;113.07;;
32523;SDS011;18965;52.242;20.886;2022-12-18T15:55:50;263.77;;;113.72;;
32523;SDS011;18965;52.242;20.886;2022-12-18T15:58:35;233.25;;;101.55;;
32523;SDS011;18965;52.242;20.886;2022-12-18T16:01:01;239.07;;;85.35;;
32523;SDS011;18965;52.242;20.886;2022-12-18T16:03:27;279.17;;;109.20;;
32523;SDS011;18965;52.242;20.886;2022-12-18T16:05:53;258.95;;;101.70;;
32523;SDS011;18965;52.242;20.886;2022-12-18T16:08:20;240.95;;;85.38;;
32523;SDS011;18965;52.242;20.886;2022-12-18T16:10:46;236.35;;;101.57;;
32523;SDS011;18965;52.242;20.886;2022-12-18T16:13:12;248.43;;;98.72;;
32523;SDS011;18965;52.242;20.886;2022-12-18T16:15:44;252.88;;;90.25;;
32523;SDS011;18965;52.242;20.886;2022-12-18T16:18:10;237.02;;;84.05;;
32523;SDS011;18965;52.242;20.886;2022-12-18T16:20:36;234.48;;;81.53;;
32523;SDS011;18965;52.242;20.886;2022-12-18T16:23:03;247.32;;;85.43;;